Terminal Aerodrome Forecast
Issued by NWS

Home | Current Version | Previous Version | Text Only | Print | Product List | Glossary On
Versions: 1 2 3 4 5 6 7 8 9 10 11 12 13 14 15 16 17 18 19 20 21 22 23 24 25 26 27 28 29 30
000
FTUS41 KBGM 250527
TAFITH
TAF
KITH 250527Z 2506/2606 16008KT P6SM BKN060
      TEMPO 2507/2511 4SM -SHRA OVC025
     FM251100 21006KT P6SM OVC015
     FM251300 24006KT P6SM BKN025
     FM251500 28008G16KT P6SM FEW035 BKN050
     FM260100 26005KT P6SM FEW060=

USA.gov is the U.S. government's official web portal to all federal, state and local government web resources and services.